Time;durP1;ratioP1;P1;durP2;ratioP2;P2;SDS_P1;SDS_P2;PMS_P1;PMS_P2;Temp;Humidity;BMP_temperature;BMP_pressure;BME280_temperature;BME280_humidity;BME280_pressure;Samples;Min_cycle;Max_cycle;Signal;HPM_P1;HPM_P2
2022/03/27 00:02:12;;;;;;;25.80;16.83;;;10.70;99.90;;;;;;4977893;28;20184;-67
2022/03/27 00:04:37;;;;;;;27.63;15.47;;;10.70;99.90;;;;;;4976722;28;20192;-67
2022/03/27 00:07:03;;;;;;;29.77;16.30;;;10.70;99.90;;;;;;4984228;28;20597;-66
2022/03/27 00:09:29;;;;;;;27.17;16.00;;;10.60;99.90;;;;;;4983968;28;20192;-67
2022/03/27 00:11:55;;;;;;;35.33;18.13;;;10.60;99.90;;;;;;4993721;28;20207;-66
2022/03/27 00:14:21;;;;;;;29.80;18.03;;;10.50;99.90;;;;;;4971905;28;20193;-66
2022/03/27 00:16:47;;;;;;;28.53;17.83;;;10.50;99.90;;;;;;4977626;28;20557;-66
2022/03/27 00:19:12;;;;;;;29.43;18.43;;;10.50;99.90;;;;;;4960200;28;20208;-67
2022/03/27 00:21:40;;;;;;;30.73;16.43;;;10.40;99.90;;;;;;4977620;28;20185;-67
2022/03/27 00:24:06;;;;;;;27.67;16.37;;;10.40;99.90;;;;;;4977485;28;20188;-66
2022/03/27 00:26:31;;;;;;;27.53;16.30;;;10.30;99.90;;;;;;4977372;28;20263;-67
2022/03/27 00:28:57;;;;;;;28.63;16.00;;;10.40;99.90;;;;;;4976561;28;20189;-66
2022/03/27 00:31:23;;;;;;;27.53;15.87;;;10.40;99.90;;;;;;4976015;28;20188;-66
2022/03/27 00:33:48;;;;;;;26.97;15.47;;;10.40;99.90;;;;;;4976439;28;20336;-66
2022/03/27 00:36:15;;;;;;;30.10;16.83;;;10.40;99.90;;;;;;4960342;28;20263;-67
2022/03/27 00:38:42;;;;;;;28.90;16.53;;;10.30;99.90;;;;;;4977272;28;20192;-67
2022/03/27 00:41:08;;;;;;;24.67;15.33;;;10.30;99.90;;;;;;4976471;28;20188;-66
2022/03/27 00:43:34;;;;;;;24.23;16.50;;;10.20;99.90;;;;;;4977303;28;20331;-66
2022/03/27 00:46:00;;;;;;;30.40;15.07;;;10.20;99.90;;;;;;4976271;28;20613;-66
2022/03/27 00:48:26;;;;;;;24.40;14.70;;;10.20;99.90;;;;;;4976042;28;20181;-67
2022/03/27 00:50:53;;;;;;;30.30;17.17;;;10.10;99.90;;;;;;4977533;28;20596;-67
2022/03/27 00:53:19;;;;;;;25.17;15.20;;;10.20;99.90;;;;;;4976957;28;20212;-67
2022/03/27 00:55:45;;;;;;;22.60;14.27;;;10.20;99.90;;;;;;4981356;28;20215;-67
2022/03/27 00:58:12;;;;;;;24.07;14.20;;;10.20;99.90;;;;;;4990494;28;20247;-67
2022/03/27 01:00:38;;;;;;;27.87;15.43;;;10.20;99.90;;;;;;4976272;28;20292;-66
2022/03/27 01:03:07;;;;;;;25.47;16.07;;;10.10;99.90;;;;;;4984527;28;20677;-66
2022/03/27 01:05:32;;;;;;;26.20;13.97;;;10.10;99.90;;;;;;4986887;28;20192;-66
2022/03/27 01:08:04;;;;;;;26.40;14.67;;;10.30;99.90;;;;;;4984223;28;20215;-67
2022/03/27 01:10:30;;;;;;;27.47;15.63;;;10.30;99.90;;;;;;4976714;28;20181;-67
2022/03/27 01:12:56;;;;;;;24.77;13.60;;;10.20;99.90;;;;;;4975480;28;20553;-67
2022/03/27 01:15:39;;;;;;;29.43;16.03;;;10.20;99.90;;;;;;4986465;28;20195;-66
2022/03/27 01:18:06;;;;;;;24.47;14.70;;;10.00;99.90;;;;;;4975086;28;20295;-66
2022/03/27 01:20:34;;;;;;;22.90;13.80;;;9.90;99.90;;;;;;4980783;28;20247;-67
2022/03/27 01:23:01;;;;;;;20.67;13.33;;;9.90;99.90;;;;;;4976722;28;20199;-66
2022/03/27 01:25:28;;;;;;;25.87;13.93;;;9.90;99.90;;;;;;4975546;28;20188;-66
2022/03/27 01:27:53;;;;;;;23.77;13.70;;;9.90;99.90;;;;;;4988825;28;20196;-66
2022/03/27 01:30:19;;;;;;;22.27;14.17;;;9.90;99.90;;;;;;4979553;28;20189;-67
2022/03/27 01:32:45;;;;;;;22.43;14.10;;;9.90;99.90;;;;;;4976137;28;20184;-68
2022/03/27 01:35:12;;;;;;;25.33;14.13;;;9.90;99.90;;;;;;4975540;28;20193;-67
2022/03/27 01:37:38;;;;;;;20.47;14.30;;;9.80;99.90;;;;;;4976850;28;20228;-67
2022/03/27 01:40:05;;;;;;;22.80;13.57;;;9.70;99.90;;;;;;4974899;28;20307;-68
2022/03/27 01:42:30;;;;;;;21.83;13.50;;;9.60;99.90;;;;;;4974828;28;20197;-68
2022/03/27 01:44:56;;;;;;;25.00;14.27;;;9.60;99.90;;;;;;4958866;28;20243;-68
2022/03/27 01:47:22;;;;;;;27.20;13.63;;;9.70;99.90;;;;;;4975077;28;20188;-68
2022/03/27 01:49:48;;;;;;;24.37;13.97;;;9.70;99.90;;;;;;4990997;28;20193;-68
2022/03/27 01:52:16;;;;;;;23.53;14.97;;;9.70;99.90;;;;;;4978923;28;20195;-68
2022/03/27 01:54:42;;;;;;;19.57;12.47;;;9.70;99.90;;;;;;4987756;28;20184;-68
2022/03/27 01:57:08;;;;;;;25.87;14.50;;;9.80;99.90;;;;;;4974838;28;20212;-68
2022/03/27 01:59:35;;;;;;;23.57;13.53;;;9.60;99.90;;;;;;4979440;28;20564;-68
2022/03/27 02:02:01;;;;;;;19.97;13.77;;;9.60;99.90;;;;;;4975867;28;20188;-68
2022/03/27 02:04:26;;;;;;;25.07;14.10;;;9.50;99.90;;;;;;4975775;28;20173;-72
2022/03/27 02:06:52;;;;;;;20.93;13.33;;;9.50;99.90;;;;;;4976172;28;20193;-68
2022/03/27 02:09:18;;;;;;;20.13;12.13;;;9.40;99.90;;;;;;4976068;28;20280;-66
2022/03/27 02:11:43;;;;;;;21.53;13.33;;;9.30;99.90;;;;;;4989759;28;20287;-68
2022/03/27 02:14:10;;;;;;;25.13;13.80;;;9.30;99.90;;;;;;4975198;28;20229;-67
2022/03/27 02:16:37;;;;;;;24.03;13.00;;;9.30;99.90;;;;;;4975668;28;20282;-67
2022/03/27 02:19:08;;;;;;;19.97;12.70;;;9.20;99.90;;;;;;4975493;28;20184;-68
2022/03/27 02:21:34;;;;;;;21.43;13.03;;;9.20;99.90;;;;;;4975886;28;20263;-67
2022/03/27 02:24:03;;;;;;;22.23;13.57;;;9.10;99.90;;;;;;4975605;28;20265;-68
2022/03/27 02:26:29;;;;;;;23.23;14.13;;;9.10;99.90;;;;;;4974466;28;20196;-68
2022/03/27 02:28:55;;;;;;;25.97;14.20;;;9.10;99.90;;;;;;4974256;28;20184;-68
2022/03/27 02:31:20;;;;;;;22.20;12.87;;;9.00;99.90;;;;;;4976007;28;20191;-68
2022/03/27 02:33:46;;;;;;;25.30;13.87;;;9.00;99.90;;;;;;4975360;28;20200;-68
2022/03/27 02:36:12;;;;;;;23.77;13.63;;;9.00;99.90;;;;;;4974019;28;20324;-68
2022/03/27 02:38:37;;;;;;;18.40;11.63;;;9.00;99.90;;;;;;4963616;28;20529;-68
2022/03/27 02:41:04;;;;;;;24.47;12.90;;;9.10;99.90;;;;;;4983351;28;20184;-68
2022/03/27 02:43:30;;;;;;;19.17;13.23;;;9.10;99.90;;;;;;4984538;28;20191;-68
2022/03/27 02:45:56;;;;;;;21.67;13.73;;;9.00;99.90;;;;;;4957885;28;20335;-68
2022/03/27 02:48:22;;;;;;;22.60;13.97;;;9.00;99.90;;;;;;4973801;28;20287;-68
2022/03/27 02:50:47;;;;;;;20.60;11.93;;;9.00;99.90;;;;;;4985262;28;20286;-67
2022/03/27 02:53:19;;;;;;;20.60;11.23;;;9.10;99.90;;;;;;4979843;28;20184;-68
2022/03/27 02:55:44;;;;;;;20.13;13.10;;;9.10;99.90;;;;;;4973706;28;20199;-67
2022/03/27 02:58:10;;;;;;;23.10;13.83;;;9.10;99.90;;;;;;4974895;28;20216;-68
2022/03/27 03:00:36;;;;;;;29.87;13.37;;;9.10;99.90;;;;;;4984063;28;20197;-68
2022/03/27 03:03:02;;;;;;;21.60;12.53;;;9.00;99.90;;;;;;4957693;28;20621;-68
2022/03/27 03:05:27;;;;;;;24.13;12.67;;;9.00;99.90;;;;;;4974740;28;20200;-68
2022/03/27 03:07:54;;;;;;;20.33;12.93;;;9.00;99.90;;;;;;4973519;28;20255;-68
2022/03/27 03:10:20;;;;;;;19.73;12.47;;;9.00;99.90;;;;;;4974518;28;20191;-68
2022/03/27 03:12:46;;;;;;;17.33;12.07;;;9.00;99.90;;;;;;4975160;28;20271;-68
2022/03/27 03:15:12;;;;;;;25.30;13.50;;;8.90;99.90;;;;;;4980436;28;20190;-71
2022/03/27 03:17:38;;;;;;;25.33;12.37;;;8.90;99.90;;;;;;4969437;28;20224;-68
2022/03/27 03:20:04;;;;;;;20.90;13.37;;;8.80;99.90;;;;;;4973641;28;20653;-67
2022/03/27 03:22:30;;;;;;;24.20;13.97;;;8.80;99.90;;;;;;4973342;28;20226;-68
2022/03/27 03:24:56;;;;;;;21.67;12.63;;;8.70;99.90;;;;;;4986130;28;20258;-67
2022/03/27 03:27:22;;;;;;;25.30;13.47;;;8.80;99.90;;;;;;4964125;28;20192;-68
2022/03/27 03:29:48;;;;;;;23.30;13.90;;;8.80;99.90;;;;;;4977491;28;20247;-69
2022/03/27 03:32:13;;;;;;;22.97;12.87;;;8.80;99.90;;;;;;4980944;28;20227;-69
2022/03/27 03:34:39;;;;;;;21.47;13.70;;;8.80;99.90;;;;;;4961297;28;20224;-70
2022/03/27 03:37:05;;;;;;;21.63;13.93;;;8.80;99.90;;;;;;4972881;28;20228;-69
2022/03/27 03:39:30;;;;;;;25.93;13.50;;;8.70;99.90;;;;;;4985490;28;20597;-68
2022/03/27 03:41:56;;;;;;;20.53;12.47;;;8.70;99.90;;;;;;4975453;28;20188;-68
2022/03/27 03:44:22;;;;;;;20.30;11.93;;;8.60;99.90;;;;;;4973287;28;20271;-69
2022/03/27 03:46:48;;;;;;;23.17;13.33;;;8.60;99.90;;;;;;4983376;28;20326;-69
2022/03/27 03:49:14;;;;;;;19.57;12.83;;;8.60;99.90;;;;;;4956704;28;20623;-69
2022/03/27 03:51:40;;;;;;;23.60;12.57;;;8.50;99.90;;;;;;4973529;28;20304;-69
2022/03/27 03:54:09;;;;;;;22.43;12.73;;;8.70;99.90;;;;;;4977029;28;20184;-68
2022/03/27 03:56:35;;;;;;;22.77;13.00;;;8.70;99.90;;;;;;4987831;28;20231;-68
2022/03/27 03:59:01;;;;;;;18.03;11.93;;;8.70;99.90;;;;;;4972963;28;20191;-68
2022/03/27 04:01:27;;;;;;;18.73;11.07;;;8.50;99.90;;;;;;4975397;28;20928;-67
2022/03/27 04:03:52;;;;;;;20.13;13.60;;;8.40;99.90;;;;;;4983462;28;20314;-67
2022/03/27 04:06:18;;;;;;;25.60;14.57;;;8.30;99.90;;;;;;4992251;28;20176;-67
2022/03/27 04:08:44;;;;;;;21.97;14.77;;;8.30;99.90;;;;;;4987874;28;20185;-69
2022/03/27 04:11:16;;;;;;;21.37;13.93;;;8.20;99.90;;;;;;4972758;28;20638;-67
2022/03/27 04:13:45;;;;;;;21.47;14.03;;;8.20;99.90;;;;;;4972771;28;20181;-68
2022/03/27 04:16:11;;;;;;;25.00;13.53;;;8.20;99.90;;;;;;4973561;28;20193;-68
2022/03/27 04:18:37;;;;;;;23.93;13.47;;;8.20;99.90;;;;;;4972714;28;20577;-68
2022/03/27 04:21:03;;;;;;;25.93;14.63;;;8.30;99.90;;;;;;4974063;28;20201;-67
2022/03/27 04:23:30;;;;;;;26.47;11.80;;;8.30;99.90;;;;;;4973953;28;20214;-68
2022/03/27 04:25:56;;;;;;;21.33;13.30;;;8.30;99.90;;;;;;4974221;28;20193;-67
2022/03/27 04:28:21;;;;;;;22.10;13.33;;;8.30;99.90;;;;;;4978424;28;20180;-67
2022/03/27 04:30:47;;;;;;;22.30;14.47;;;8.30;99.90;;;;;;4987342;28;20239;-67
2022/03/27 04:33:12;;;;;;;23.80;14.07;;;8.30;99.90;;;;;;4973255;28;20239;-67
2022/03/27 04:35:38;;;;;;;21.53;13.30;;;8.20;99.90;;;;;;4974454;28;20564;-68
2022/03/27 04:38:05;;;;;;;26.43;14.07;;;8.10;99.90;;;;;;4975965;28;20229;-67
2022/03/27 04:40:31;;;;;;;22.73;12.70;;;8.10;99.90;;;;;;4981567;28;20196;-69
2022/03/27 04:42:57;;;;;;;22.40;14.03;;;8.10;99.90;;;;;;4960682;28;20195;-69
2022/03/27 04:45:23;;;;;;;22.03;14.43;;;8.20;99.90;;;;;;4977423;28;20335;-69
2022/03/27 04:47:49;;;;;;;19.20;12.17;;;8.20;99.90;;;;;;4977337;28;20291;-68
2022/03/27 04:50:16;;;;;;;24.20;14.37;;;8.20;99.90;;;;;;4977466;28;20758;-69
2022/03/27 04:52:41;;;;;;;20.27;13.10;;;8.30;99.90;;;;;;4976990;28;20212;-69
2022/03/27 04:55:07;;;;;;;27.07;13.87;;;8.30;99.90;;;;;;4975877;28;20295;-69
2022/03/27 04:57:38;;;;;;;21.80;14.60;;;8.30;99.90;;;;;;4985087;28;20223;-69
2022/03/27 05:00:11;;;;;;;22.80;12.37;;;8.40;99.90;;;;;;4977828;28;20192;-68
2022/03/27 05:02:41;;;;;;;22.47;13.17;;;8.30;99.90;;;;;;4980779;28;20187;-69
2022/03/27 05:05:10;;;;;;;24.03;13.73;;;8.30;99.90;;;;;;4981668;28;20189;-68
2022/03/27 05:07:37;;;;;;;22.87;14.13;;;8.20;99.90;;;;;;4975592;28;20596;-69
2022/03/27 05:10:04;;;;;;;23.13;13.70;;;8.10;99.90;;;;;;4996256;28;20188;-69
2022/03/27 05:12:30;;;;;;;20.83;13.33;;;8.20;99.90;;;;;;4980355;28;20193;-69
2022/03/27 05:14:56;;;;;;;20.33;14.17;;;8.20;99.90;;;;;;4988256;28;20199;-68
2022/03/27 05:17:21;;;;;;;18.73;12.97;;;8.10;99.90;;;;;;4976632;28;20205;-68
2022/03/27 05:19:47;;;;;;;21.73;13.50;;;8.10;99.90;;;;;;4987325;28;20624;-69
2022/03/27 05:22:13;;;;;;;25.73;14.47;;;8.20;99.90;;;;;;4968647;28;20222;-69
2022/03/27 05:24:39;;;;;;;19.70;13.60;;;8.30;99.90;;;;;;4980600;28;20188;-66
2022/03/27 05:27:04;;;;;;;26.60;14.70;;;8.30;99.90;;;;;;4987336;28;20192;-66
2022/03/27 05:29:30;;;;;;;24.37;15.07;;;8.30;99.90;;;;;;4976599;28;20220;-68
2022/03/27 05:31:58;;;;;;;24.97;15.27;;;8.20;99.90;;;;;;4959004;28;20184;-68
2022/03/27 05:34:24;;;;;;;25.07;14.63;;;8.10;99.90;;;;;;4981680;28;20188;-68
2022/03/27 05:36:49;;;;;;;28.50;15.93;;;8.10;99.90;;;;;;4978237;28;20220;-68
2022/03/27 05:39:15;;;;;;;23.27;16.27;;;8.10;99.90;;;;;;4959568;28;20184;-69
2022/03/27 05:41:41;;;;;;;33.30;17.33;;;8.00;99.90;;;;;;4975375;28;20527;-68
2022/03/27 05:44:06;;;;;;;24.47;16.77;;;8.00;99.90;;;;;;4959138;28;20235;-68
2022/03/27 05:46:32;;;;;;;28.40;16.30;;;8.00;99.90;;;;;;4974983;28;20197;-68
2022/03/27 05:48:58;;;;;;;32.00;17.03;;;8.20;99.90;;;;;;4958730;28;20196;-68
2022/03/27 05:51:23;;;;;;;37.27;19.37;;;8.10;99.90;;;;;;4976791;28;20196;-68
2022/03/27 05:53:49;;;;;;;33.17;19.37;;;8.10;99.90;;;;;;4975994;28;20189;-68
2022/03/27 05:56:15;;;;;;;29.03;17.10;;;8.00;99.90;;;;;;4963755;28;20280;-69
2022/03/27 05:58:41;;;;;;;31.43;18.60;;;8.00;99.90;;;;;;4991326;28;20538;-67
2022/03/27 06:01:06;;;;;;;36.03;18.63;;;8.00;99.90;;;;;;4976029;28;20177;-67
2022/03/27 06:03:32;;;;;;;34.43;18.13;;;8.10;99.90;;;;;;4974209;28;20322;-67
2022/03/27 06:05:58;;;;;;;36.27;19.10;;;8.20;99.90;;;;;;4975908;28;20188;-68
2022/03/27 06:08:24;;;;;;;35.63;18.13;;;8.10;99.90;;;;;;4975813;28;20532;-68
2022/03/27 06:10:50;;;;;;;36.90;19.50;;;8.00;99.90;;;;;;4986238;28;20180;-67
2022/03/27 06:13:17;;;;;;;33.63;18.87;;;8.20;99.90;;;;;;4984813;28;20191;-69
2022/03/27 06:15:43;;;;;;;43.37;20.27;;;8.20;99.90;;;;;;4968740;28;20283;-68
2022/03/27 06:18:10;;;;;;;35.97;19.20;;;8.30;99.90;;;;;;4979154;28;20271;-69
2022/03/27 06:20:37;;;;;;;38.67;17.93;;;8.20;99.90;;;;;;4976155;28;20212;-67
2022/03/27 06:23:03;;;;;;;44.57;19.63;;;8.00;99.90;;;;;;4975587;28;20472;-69
2022/03/27 06:25:29;;;;;;;37.70;19.83;;;8.10;99.90;;;;;;4975496;28;20267;-70
2022/03/27 06:27:56;;;;;;;40.30;19.30;;;8.10;99.90;;;;;;4984715;28;20287;-70
2022/03/27 06:30:24;;;;;;;40.80;20.17;;;8.00;99.90;;;;;;4980024;28;20216;-69
2022/03/27 06:32:53;;;;;;;41.57;22.07;;;8.00;99.90;;;;;;4975175;28;20242;-73
2022/03/27 06:35:22;;;;;;;34.97;19.53;;;8.10;99.90;;;;;;4974328;28;20193;-68
2022/03/27 06:37:48;;;;;;;44.37;20.20;;;8.20;99.90;;;;;;4987888;28;20262;-71
2022/03/27 06:40:15;;;;;;;40.70;21.37;;;8.20;99.90;;;;;;4991806;28;20214;-70
2022/03/27 06:42:43;;;;;;;41.60;19.00;;;8.30;99.90;;;;;;4971408;28;20188;-71
2022/03/27 06:45:13;;;;;;;44.93;21.53;;;8.30;99.90;;;;;;4975483;28;20664;-73
2022/03/27 06:47:40;;;;;;;42.60;20.40;;;8.30;99.90;;;;;;4974144;28;20199;-70
2022/03/27 06:50:07;;;;;;;51.90;24.20;;;8.30;99.90;;;;;;4973936;28;20208;-71
2022/03/27 06:52:34;;;;;;;49.73;22.87;;;8.30;99.90;;;;;;4990213;28;20198;-71
2022/03/27 06:55:00;;;;;;;47.33;23.10;;;8.50;99.90;;;;;;4978720;28;20199;-71
2022/03/27 06:57:26;;;;;;;41.87;21.27;;;8.60;99.90;;;;;;4988370;28;20266;-70
2022/03/27 07:05:22;;;;;;;50.80;21.40;;;8.70;99.90;;;;;;4975253;28;20311;-71
2022/03/27 07:07:48;;;;;;;50.03;22.93;;;8.90;99.90;;;;;;4977203;28;20216;-70
2022/03/27 07:10:14;;;;;;;50.83;23.13;;;8.80;99.90;;;;;;4986208;28;20188;-70
2022/03/27 07:12:42;;;;;;;51.17;23.43;;;8.70;99.90;;;;;;4973233;28;20670;-69
2022/03/27 07:15:08;;;;;;;50.10;22.97;;;8.60;99.90;;;;;;4973368;28;20189;-69
2022/03/27 07:17:54;;;;;;;47.80;22.53;;;8.60;99.90;;;;;;4973291;28;20636;-70
2022/03/27 07:20:28;;;;;;;45.77;21.87;;;8.50;99.90;;;;;;4973985;28;20207;-70
2022/03/27 07:22:56;;;;;;;49.87;23.67;;;8.50;99.90;;;;;;4973359;28;20266;-68
2022/03/27 07:25:23;;;;;;;43.10;22.90;;;8.70;99.90;;;;;;4987703;28;20176;-70
2022/03/27 07:27:49;;;;;;;50.03;22.57;;;8.70;99.90;;;;;;4989362;28;20191;-74
2022/03/27 07:30:15;;;;;;;52.13;24.73;;;8.70;99.90;;;;;;4977583;28;20712;-69
2022/03/27 07:32:41;;;;;;;51.70;25.20;;;8.60;99.90;;;;;;4972660;28;20206;-68
2022/03/27 07:35:09;;;;;;;47.33;24.50;;;8.60;99.90;;;;;;4978623;28;20674;-68
2022/03/27 07:37:36;;;;;;;56.20;24.70;;;8.60;99.90;;;;;;4972683;28;20227;-68
2022/03/27 07:40:03;;;;;;;48.00;23.57;;;8.60;99.90;;;;;;4977054;28;20184;-68
2022/03/27 07:42:34;;;;;;;51.93;24.03;;;8.70;99.90;;;;;;4987936;28;20198;-72
2022/03/27 07:45:00;;;;;;;47.03;22.43;;;8.70;99.90;;;;;;4981011;28;20262;-68
2022/03/27 07:47:26;;;;;;;43.57;22.73;;;8.90;99.90;;;;;;4972321;28;20588;-69
2022/03/27 07:49:52;;;;;;;44.63;22.10;;;9.00;99.90;;;;;;4978988;28;20280;-71
2022/03/27 07:52:18;;;;;;;50.50;23.33;;;9.20;99.90;;;;;;4970823;28;20243;-68
2022/03/27 07:54:43;;;;;;;53.67;24.97;;;9.20;99.90;;;;;;4973424;28;20197;-67
2022/03/27 07:57:09;;;;;;;53.43;23.57;;;8.90;99.90;;;;;;4973845;28;20267;-68
2022/03/27 07:59:35;;;;;;;54.30;22.30;;;8.80;99.90;;;;;;4974173;28;20206;-68
2022/03/27 08:02:02;;;;;;;42.97;23.77;;;8.80;99.90;;;;;;4973978;28;20579;-68
2022/03/27 08:04:27;;;;;;;55.23;24.30;;;8.80;99.90;;;;;;4973869;28;20179;-68
2022/03/27 08:06:53;;;;;;;58.37;24.93;;;9.00;99.90;;;;;;4974325;28;20267;-72
2022/03/27 08:09:19;;;;;;;57.23;24.70;;;9.00;99.90;;;;;;4991817;28;20196;-68
2022/03/27 08:11:45;;;;;;;49.20;21.80;;;9.00;99.90;;;;;;4959622;28;20622;-68
2022/03/27 08:14:11;;;;;;;45.47;21.80;;;9.00;99.90;;;;;;4976397;28;20180;-68
2022/03/27 08:16:37;;;;;;;54.30;23.93;;;9.00;99.90;;;;;;4976220;28;20212;-67
2022/03/27 08:19:03;;;;;;;53.10;23.77;;;9.10;99.90;;;;;;4976353;28;20181;-67
2022/03/27 08:21:29;;;;;;;57.33;24.93;;;9.10;99.90;;;;;;4977609;28;20197;-67
2022/03/27 08:23:55;;;;;;;45.00;22.23;;;9.20;99.90;;;;;;4960515;28;20575;-67
2022/03/27 08:29:13;;;;;;;48.37;23.03;;;9.60;99.90;;;;;;4975233;28;20185;-68
2022/03/27 08:31:38;;;;;;;47.83;23.63;;;9.70;99.90;;;;;;4983147;28;20199;-68
2022/03/27 08:34:04;;;;;;;51.33;24.63;;;9.70;99.90;;;;;;4979842;28;20172;-68
2022/03/27 08:36:30;;;;;;;50.67;22.30;;;9.70;99.90;;;;;;4989569;28;20235;-68
2022/03/27 08:38:55;;;;;;;64.93;25.20;;;9.60;99.90;;;;;;4959923;28;20212;-68
2022/03/27 08:41:22;;;;;;;48.90;23.03;;;9.70;99.90;;;;;;4960079;28;20203;-68
2022/03/27 08:43:49;;;;;;;50.40;23.50;;;9.60;99.90;;;;;;4986113;28;20188;-68
2022/03/27 08:46:16;;;;;;;56.07;23.30;;;9.80;99.90;;;;;;4987277;28;20220;-68
2022/03/27 08:48:48;;;;;;;50.37;22.30;;;9.70;99.90;;;;;;4976109;28;20210;-67
2022/03/27 08:51:32;;;;;;;48.10;23.90;;;9.60;99.90;;;;;;4992263;28;20189;-67
2022/03/27 08:54:01;;;;;;;50.77;20.97;;;9.50;99.90;;;;;;4982484;28;20176;-67
2022/03/27 08:56:28;;;;;;;50.83;23.17;;;9.50;99.90;;;;;;4992755;28;20204;-68
2022/03/27 08:58:56;;;;;;;55.57;24.10;;;9.50;99.90;;;;;;4975888;28;20195;-68
2022/03/27 09:01:22;;;;;;;52.40;22.50;;;9.70;99.90;;;;;;4976763;28;20243;-67
2022/03/27 09:03:48;;;;;;;53.83;23.43;;;9.90;99.90;;;;;;4987444;28;20247;-68
2022/03/27 09:06:14;;;;;;;60.03;23.73;;;10.00;99.90;;;;;;4992217;28;20188;-68
2022/03/27 09:08:40;;;;;;;56.50;23.20;;;10.00;99.90;;;;;;4975750;28;20189;-68
2022/03/27 09:11:06;;;;;;;58.57;24.13;;;9.80;99.90;;;;;;4985661;28;20246;-68
2022/03/27 09:13:32;;;;;;;58.37;25.10;;;10.00;99.90;;;;;;4989462;28;20243;-68
2022/03/27 09:16:07;;;;;;;57.17;25.17;;;9.90;99.90;;;;;;4975986;28;20548;-68
2022/03/27 09:18:55;;;;;;;50.00;23.07;;;10.10;99.90;;;;;;4975875;28;20223;-69
2022/03/27 09:21:27;;;;;;;51.47;22.67;;;10.30;99.90;;;;;;4974639;28;20271;-69
2022/03/27 09:23:59;;;;;;;51.53;23.43;;;10.40;99.90;;;;;;4977007;28;20180;-68
2022/03/27 09:26:25;;;;;;;52.40;23.47;;;10.60;99.90;;;;;;4975073;28;20216;-68
2022/03/27 09:28:57;;;;;;;49.33;22.27;;;10.60;99.90;;;;;;4987172;28;20238;-68
2022/03/27 09:31:27;;;;;;;47.77;25.63;;;10.50;99.90;;;;;;4976825;28;20188;-69
2022/03/27 09:34:00;;;;;;;41.93;21.93;;;10.30;99.90;;;;;;4958870;28;20192;-68
2022/03/27 09:36:31;;;;;;;47.83;20.77;;;10.30;99.90;;;;;;4975015;28;20254;-68
2022/03/27 09:39:00;;;;;;;48.03;23.23;;;10.20;99.90;;;;;;4981459;28;20211;-68
2022/03/27 09:41:42;;;;;;;41.33;19.60;;;10.10;99.90;;;;;;4995036;28;20191;-68
2022/03/27 09:44:19;;;;;;;44.63;20.73;;;10.30;99.90;;;;;;4990171;28;20188;-69
2022/03/27 09:46:54;;;;;;;44.17;20.70;;;10.30;99.90;;;;;;4986028;28;20319;-69
2022/03/27 09:49:40;;;;;;;46.40;20.73;;;10.50;99.90;;;;;;4982824;28;20188;-66
2022/03/27 09:52:09;;;;;;;40.67;20.67;;;10.60;99.90;;;;;;4974690;28;20195;-69
2022/03/27 09:54:51;;;;;;;45.87;19.87;;;10.70;99.90;;;;;;4974711;28;20284;-68
2022/03/27 09:57:27;;;;;;;37.27;18.33;;;10.60;99.90;;;;;;4977123;28;20216;-68
2022/03/27 09:59:55;;;;;;;44.47;19.87;;;10.60;99.90;;;;;;4989919;28;20192;-67
2022/03/27 10:02:29;;;;;;;38.33;18.90;;;10.70;99.90;;;;;;4976004;28;20189;-68
2022/03/27 10:05:00;;;;;;;43.80;21.13;;;10.70;99.90;;;;;;4959518;28;20184;-68
2022/03/27 10:07:31;;;;;;;48.97;19.50;;;10.70;99.90;;;;;;4975897;28;20193;-68
2022/03/27 10:09:57;;;;;;;43.47;20.73;;;10.60;99.90;;;;;;4977605;28;20184;-68
2022/03/27 10:12:28;;;;;;;43.43;21.03;;;10.70;99.90;;;;;;4993207;28;20184;-68
2022/03/27 10:14:57;;;;;;;44.63;19.87;;;10.50;99.90;;;;;;4983775;28;20585;-68
2022/03/27 10:17:27;;;;;;;44.70;19.80;;;10.60;99.90;;;;;;4974151;28;20286;-68
2022/03/27 10:19:56;;;;;;;42.70;19.77;;;10.40;99.90;;;;;;4975288;28;20275;-69
2022/03/27 10:22:26;;;;;;;47.20;21.20;;;10.30;99.90;;;;;;4975476;28;20185;-68
2022/03/27 10:24:55;;;;;;;44.70;23.63;;;10.30;99.90;;;;;;4975665;28;20184;-69
2022/03/27 10:27:21;;;;;;;41.53;21.87;;;10.40;99.90;;;;;;4973889;28;20279;-69
2022/03/27 10:29:47;;;;;;;45.93;22.10;;;10.50;99.90;;;;;;4981650;28;20196;-68
2022/03/27 10:32:14;;;;;;;46.07;21.53;;;10.50;99.90;;;;;;4980248;28;20246;-69
2022/03/27 10:34:54;;;;;;;50.03;22.83;;;10.50;99.90;;;;;;4982231;28;20197;-67
2022/03/27 10:37:31;;;;;;;45.27;20.33;;;10.50;99.90;;;;;;4974169;28;20232;-69
2022/03/27 10:40:00;;;;;;;44.87;20.70;;;10.30;99.90;;;;;;4974004;28;20595;-68
2022/03/27 10:42:57;;;;;;;44.60;22.80;;;10.50;99.90;;;;;;4983257;28;20243;-68
2022/03/27 10:45:23;;;;;;;51.13;21.80;;;10.40;99.90;;;;;;4975126;28;20272;-68
2022/03/27 10:48:12;;;;;;;52.27;21.83;;;10.50;99.90;;;;;;4989768;28;20280;-68
2022/03/27 10:51:04;;;;;;;44.53;19.97;;;10.70;99.90;;;;;;4974945;28;20638;-67
2022/03/27 10:53:29;;;;;;;42.40;19.90;;;10.80;99.90;;;;;;4954711;28;20259;-68
2022/03/27 10:55:57;;;;;;;43.43;22.47;;;10.70;99.90;;;;;;4941940;28;20605;-68
2022/03/27 10:58:33;;;;;;;47.00;22.90;;;10.90;99.90;;;;;;4966973;28;20332;-69
2022/03/27 11:01:02;;;;;;;50.43;21.10;;;11.00;99.90;;;;;;4974707;28;20180;-69
2022/03/27 11:03:43;;;;;;;40.47;21.03;;;10.80;99.90;;;;;;4973462;28;20181;-69
2022/03/27 11:06:29;;;;;;;45.53;22.00;;;10.80;99.90;;;;;;4975233;28;20195;-68
2022/03/27 11:08:57;;;;;;;41.30;19.93;;;11.10;99.90;;;;;;4989582;28;20184;-69
2022/03/27 11:11:53;;;;;;;48.27;21.80;;;10.90;99.90;;;;;;4973829;28;20180;-69
2022/03/27 11:14:24;;;;;;;41.67;19.70;;;11.10;99.90;;;;;;4961744;28;20197;-69
2022/03/27 11:17:05;;;;;;;40.30;19.67;;;11.50;99.90;;;;;;4981929;28;20677;-69
2022/03/27 11:19:41;;;;;;;42.07;20.23;;;11.40;99.90;;;;;;4974934;28;20177;-69
2022/03/27 11:22:06;;;;;;;48.17;22.60;;;11.20;99.90;;;;;;4974619;28;20753;-69
2022/03/27 11:24:32;;;;;;;41.63;22.13;;;11.10;99.90;;;;;;4980151;28;20208;-70
2022/03/27 11:26:58;;;;;;;42.57;20.00;;;11.20;99.90;;;;;;4974325;28;20313;-68
2022/03/27 11:29:25;;;;;;;45.80;21.27;;;11.20;99.90;;;;;;4973085;28;20195;-69
2022/03/27 11:32:07;;;;;;;44.20;21.40;;;11.10;99.90;;;;;;4974319;28;20212;-68
2022/03/27 11:34:34;;;;;;;40.03;18.93;;;11.10;99.90;;;;;;4974559;28;20255;-69
2022/03/27 11:37:25;;;;;;;43.43;21.03;;;11.10;99.90;;;;;;4972937;28;20259;-68
2022/03/27 11:39:52;;;;;;;40.63;21.37;;;10.80;99.90;;;;;;4973764;28;20189;-69
2022/03/27 11:42:22;;;;;;;43.97;17.80;;;10.80;99.90;;;;;;4974253;28;20187;-69
2022/03/27 11:47:44;;;;;;;45.97;21.30;;;11.30;99.90;;;;;;4981090;28;20204;-69
2022/03/27 11:50:23;;;;;;;44.57;21.77;;;11.30;99.90;;;;;;4981576;28;20184;-69
2022/03/27 11:52:49;;;;;;;34.57;19.73;;;11.50;99.90;;;;;;4973111;28;20212;-69
2022/03/27 11:55:16;;;;;;;49.37;23.53;;;11.30;99.90;;;;;;4974181;28;20231;-69
2022/03/27 11:57:56;;;;;;;55.05;25.00;;;11.50;99.90;;;;;;4956963;28;20224;-69
2022/03/27 12:00:48;;;;;;;47.17;20.07;;;11.80;99.90;;;;;;4979034;28;20200;-69
2022/03/27 12:03:22;;;;;;;44.67;20.05;;;12.00;99.90;;;;;;4981273;28;20571;-69
2022/03/27 12:05:49;;;;;;;41.85;19.70;;;12.20;99.90;;;;;;4973105;28;20191;-67
2022/03/27 12:08:17;;;;;;;43.65;18.92;;;12.10;99.90;;;;;;4972728;28;20200;-68
2022/03/27 12:10:49;;;;;;;38.37;20.43;;;11.90;99.90;;;;;;4984638;28;20189;-69
2022/03/27 12:13:15;;;;;;;48.83;21.52;;;11.70;99.90;;;;;;4974312;28;20181;-68
2022/03/27 12:15:49;;;;;;;42.55;19.52;;;11.90;99.90;;;;;;4972646;28;20193;-69
2022/03/27 12:18:38;;;;;;;46.67;19.52;;;11.70;99.90;;;;;;4974527;28;20225;-68
2022/03/27 12:21:09;;;;;;;45.03;21.23;;;11.70;99.90;;;;;;4975951;28;20725;-68
2022/03/27 12:23:37;;;;;;;46.80;22.63;;;12.00;99.90;;;;;;4973451;28;20275;-66
2022/03/27 12:32:06;;;;;;;44.13;19.33;;;12.10;99.90;;;;;;4973315;28;20665;-69
2022/03/27 12:34:33;;;;;;;40.72;18.98;;;12.30;99.90;;;;;;4973095;28;20259;-69
2022/03/27 12:37:16;;;;;;;41.85;20.70;;;12.20;99.90;;;;;;4974158;28;20220;-69
2022/03/27 12:39:47;;;;;;;37.50;19.48;;;12.10;99.90;;;;;;4990268;28;20211;-74
2022/03/27 12:42:30;;;;;;;37.55;18.63;;;12.00;99.90;;;;;;4973502;28;20192;-70
2022/03/27 12:45:10;;;;;;;45.75;19.90;;;12.30;99.90;;;;;;4971909;28;20210;-70
2022/03/27 12:48:13;;;;;;;37.83;20.23;;;12.60;99.90;;;;;;4973524;28;20184;-69
2022/03/27 12:50:41;;;;;;;43.65;19.77;;;12.50;99.90;;;;;;4974466;28;20188;-70
2022/03/27 12:53:09;;;;;;;42.13;20.13;;;12.20;99.90;;;;;;4972713;28;20200;-69
2022/03/27 12:55:50;;;;;;;38.60;19.15;;;12.00;99.90;;;;;;4973210;28;20180;-70
2022/03/27 12:58:17;;;;;;;41.30;19.08;;;12.20;99.90;;;;;;4976183;28;20237;-69